createdAt,value
2023-09-11T00:04:50.673Z,24.40
2023-09-11T00:09:53.683Z,28.40
2023-09-11T00:14:56.864Z,29.30
2023-09-11T00:20:00.149Z,29.90
2023-09-11T00:25:03.467Z,30.10
2023-09-11T00:30:07.756Z,29.70
2023-09-11T00:35:10.858Z,26.20
2023-09-11T00:40:14.076Z,29.70
2023-09-11T00:45:17.280Z,30.30
2023-09-11T00:50:20.967Z,23.40
2023-09-11T00:55:24.638Z,31.40
2023-09-11T01:00:27.896Z,31.80
2023-09-11T01:05:32.050Z,20.40
2023-09-11T01:10:36.237Z,24.60
2023-09-11T01:15:44.331Z,25.70
2023-09-11T01:20:50.047Z,26.60
2023-09-11T01:26:13.392Z,29.20
2023-09-11T01:31:19.266Z,33.80
2023-09-11T01:36:22.367Z,30.10
2023-09-11T01:41:36.527Z,31.00
2023-09-11T01:46:39.958Z,32.20
2023-09-11T01:51:43.696Z,29.40
2023-09-11T01:56:47.050Z,34.80
2023-09-11T02:01:50.157Z,26.70
2023-09-11T02:06:53.417Z,42.30
2023-09-11T02:11:56.434Z,23.70
2023-09-11T02:17:04.345Z,25.10
2023-09-11T02:22:07.556Z,28.60
2023-09-11T02:27:10.563Z,33.60
2023-09-11T02:32:13.581Z,27.50
2023-09-11T02:37:16.684Z,32.80
2023-09-11T02:42:19.687Z,32.40
2023-09-11T02:47:22.815Z,30.90
2023-09-11T02:52:25.903Z,28.80
2023-09-11T02:57:28.909Z,30.10
2023-09-11T03:02:32.375Z,25.60
2023-09-11T03:07:35.536Z,32.10
2023-09-11T03:12:38.647Z,32.20
2023-09-11T03:17:42.002Z,26.20
2023-09-11T03:22:45.992Z,28.40
2023-09-11T03:27:49.120Z,25.80
2023-09-11T03:32:52.503Z,26.00
2023-09-11T03:37:56.341Z,26.10
2023-09-11T03:42:59.349Z,26.00
2023-09-11T03:48:02.463Z,26.20
2023-09-11T03:53:05.681Z,25.60
2023-09-11T03:58:08.676Z,22.70
2023-09-11T04:03:11.805Z,28.90
2023-09-11T04:08:15.509Z,27.00
2023-09-11T04:13:18.621Z,24.60
2023-09-11T04:18:21.808Z,31.10
2023-09-11T04:23:25.092Z,25.00
2023-09-11T04:28:28.373Z,32.90
2023-09-11T04:33:31.801Z,35.00
2023-09-11T04:38:35.142Z,36.90
2023-09-11T04:43:38.421Z,36.40
2023-09-11T04:48:42.104Z,31.70
2023-09-11T04:53:45.913Z,26.30
2023-09-11T04:58:49.518Z,19.40
2023-09-11T05:03:53.089Z,18.60
2023-09-11T05:09:11.550Z,26.40
2023-09-11T05:14:15.999Z,20.40
2023-09-11T05:19:19.245Z,23.80
2023-09-11T05:24:22.424Z,28.60
2023-09-11T05:29:25.611Z,20.90
2023-09-11T05:34:28.746Z,13.80
2023-09-11T05:39:33.593Z,17.70
2023-09-11T05:44:36.745Z,16.60
2023-09-11T05:49:40.013Z,16.20
2023-09-11T05:54:43.332Z,18.60
2023-09-11T05:59:47.509Z,20.90
2023-09-11T06:04:50.741Z,16.40
2023-09-11T06:09:53.614Z,17.40
2023-09-11T06:14:56.930Z,17.50
2023-09-11T06:20:00.370Z,16.00
2023-09-11T06:25:05.861Z,17.40
2023-09-11T06:30:10.181Z,17.70
2023-09-11T06:35:13.425Z,12.30
2023-09-11T06:40:17.046Z,17.40
2023-09-11T06:45:20.254Z,15.30
2023-09-11T06:50:23.369Z,22.40
2023-09-11T06:55:26.482Z,17.10
2023-09-11T07:00:30.115Z,13.70
2023-09-11T07:05:33.647Z,17.20
2023-09-11T07:10:41.563Z,18.10
2023-09-11T07:20:48.403Z,26.60
2023-09-11T07:25:58.134Z,18.70
2023-09-11T07:31:01.144Z,13.20
2023-09-11T07:36:04.777Z,18.80
2023-09-11T07:41:07.867Z,12.80
2023-09-11T07:46:11.113Z,16.80
2023-09-11T07:51:14.255Z,15.00
2023-09-11T07:56:17.402Z,18.00
2023-09-11T08:01:20.603Z,12.00
2023-09-11T08:06:26.775Z,16.40
2023-09-11T08:11:29.911Z,17.20
2023-09-11T08:16:33.139Z,12.80
2023-09-11T08:21:36.334Z,15.70
2023-09-11T08:26:40.037Z,14.70
2023-09-11T08:31:43.468Z,16.10
2023-09-11T08:36:46.578Z,13.30
2023-09-11T08:41:53.046Z,12.20
2023-09-11T08:47:00.085Z,18.10
2023-09-11T08:52:05.259Z,16.40
2023-09-11T08:57:11.539Z,13.80
2023-09-11T09:02:15.863Z,12.10
2023-09-11T09:07:19.859Z,18.30
2023-09-11T09:12:23.190Z,14.50
2023-09-11T09:17:26.301Z,13.60
2023-09-11T09:22:29.404Z,19.90
2023-09-11T09:27:37.336Z,14.60
2023-09-11T09:32:40.642Z,15.10
2023-09-11T09:37:53.283Z,16.40
2023-09-11T09:42:56.486Z,14.90
2023-09-11T09:48:26.059Z,15.60
2023-09-11T09:53:44.314Z,13.70
2023-09-11T09:58:48.001Z,15.60
2023-09-11T10:03:53.299Z,13.00
2023-09-11T10:09:09.059Z,15.90
2023-09-11T10:14:12.598Z,11.50
2023-09-11T10:19:18.921Z,12.00
2023-09-11T10:24:22.890Z,12.40
2023-09-11T10:29:31.143Z,14.30
2023-09-11T10:34:34.387Z,12.80
2023-09-11T10:39:38.948Z,11.30
2023-09-11T10:44:42.037Z,11.90
2023-09-11T10:49:45.112Z,14.80
2023-09-11T10:54:49.143Z,18.00
2023-09-11T10:59:52.374Z,12.90
2023-09-11T11:04:55.453Z,14.50
2023-09-11T11:10:02.933Z,16.80
2023-09-11T11:15:27.052Z,12.90
2023-09-11T11:20:30.385Z,11.20
2023-09-11T11:25:34.211Z,11.20
2023-09-11T11:30:38.907Z,9.10
2023-09-11T11:35:48.033Z,12.60
2023-09-11T11:40:52.751Z,19.00
2023-09-11T11:45:57.296Z,9.20
2023-09-11T11:51:00.537Z,15.60
2023-09-11T11:56:05.276Z,12.00
2023-09-11T12:01:08.312Z,11.20
2023-09-11T12:06:11.826Z,11.10
2023-09-11T12:11:15.110Z,9.80
2023-09-11T12:16:18.469Z,11.50
2023-09-11T12:21:22.575Z,9.50
2023-09-11T12:26:26.159Z,12.20
2023-09-11T12:31:29.300Z,10.80
2023-09-11T12:36:32.807Z,12.70
2023-09-11T12:41:36.160Z,9.50
2023-09-11T12:46:39.345Z,11.20
2023-09-11T12:51:42.833Z,10.30
2023-09-11T12:56:45.982Z,9.50
2023-09-11T13:01:54.986Z,11.30
2023-09-11T13:06:58.313Z,9.70
2023-09-11T13:12:01.552Z,11.00
2023-09-11T13:17:05.346Z,8.30
2023-09-11T13:22:08.556Z,10.80
2023-09-11T13:27:12.176Z,11.40
2023-09-11T13:32:15.689Z,15.10
2023-09-11T13:37:18.907Z,12.20
2023-09-11T13:42:25.710Z,9.30
2023-09-11T13:47:29.896Z,14.40
2023-09-11T13:52:33.047Z,10.90
2023-09-11T13:57:36.915Z,11.10
2023-09-11T14:02:40.483Z,13.80
2023-09-11T14:07:43.807Z,11.40
2023-09-11T14:12:46.913Z,10.00
2023-09-11T14:17:49.962Z,11.00
2023-09-11T14:22:53.541Z,10.00
2023-09-11T14:27:56.562Z,13.30
2023-09-11T14:33:01.056Z,12.10
2023-09-11T14:38:04.516Z,12.40
2023-09-11T14:43:07.552Z,11.70
2023-09-11T14:48:10.695Z,13.60
2023-09-11T14:53:17.695Z,12.80
2023-09-11T14:58:20.738Z,10.80
2023-09-11T15:03:24.046Z,13.20
2023-09-11T15:08:28.166Z,11.30
2023-09-11T15:13:32.122Z,11.80
2023-09-11T15:18:35.471Z,9.80
2023-09-11T15:23:38.663Z,14.30
2023-09-11T15:28:42.059Z,9.90
2023-09-11T15:33:45.583Z,12.80
2023-09-11T15:38:48.635Z,12.30
2023-09-11T15:43:51.684Z,10.00
2023-09-11T15:48:54.854Z,17.30
2023-09-11T15:53:58.202Z,14.10
2023-09-11T15:59:01.330Z,11.40
2023-09-11T16:04:04.573Z,12.60
2023-09-11T16:09:07.907Z,13.50
2023-09-11T16:14:11.057Z,14.00
2023-09-11T16:19:14.286Z,13.50
2023-09-11T16:24:17.320Z,15.40
2023-09-11T16:29:20.590Z,16.10
2023-09-11T16:34:23.805Z,13.70
2023-09-11T16:39:26.933Z,12.70
2023-09-11T16:44:30.357Z,15.50
2023-09-11T16:49:33.443Z,13.20
2023-09-11T16:54:36.753Z,12.50
2023-09-11T16:59:40.307Z,13.30
2023-09-11T17:04:43.651Z,16.90
2023-09-11T17:09:48.750Z,17.20
2023-09-11T17:14:54.681Z,19.00
2023-09-11T17:19:58.037Z,21.80
2023-09-11T17:25:01.258Z,20.20
2023-09-11T17:30:04.779Z,18.20
2023-09-11T17:35:08.348Z,18.60
2023-09-11T17:40:12.307Z,17.00
2023-09-11T17:45:15.595Z,17.50
2023-09-11T17:50:18.834Z,19.80
2023-09-11T17:55:21.955Z,14.10
2023-09-11T18:00:26.942Z,15.60
2023-09-11T18:05:30.835Z,16.60
2023-09-11T18:10:33.937Z,16.10
2023-09-11T18:15:38.398Z,19.80
2023-09-11T18:20:43.133Z,17.60
2023-09-11T18:25:46.443Z,16.40
2023-09-11T18:30:49.982Z,19.40
2023-09-11T18:35:55.473Z,18.60
2023-09-11T18:40:59.924Z,17.50
2023-09-11T18:46:03.332Z,21.90
2023-09-11T18:51:07.275Z,18.50
2023-09-11T18:56:10.635Z,22.00
2023-09-11T19:01:14.187Z,19.30
2023-09-11T19:06:20.672Z,20.00
2023-09-11T19:11:24.049Z,17.60
2023-09-11T19:16:27.238Z,20.30
2023-09-11T19:21:31.433Z,19.70
2023-09-11T19:26:35.249Z,20.50
2023-09-11T19:31:38.522Z,19.80
2023-09-11T19:36:41.841Z,19.60
2023-09-11T19:41:45.165Z,20.20
2023-09-11T19:46:49.102Z,23.50
2023-09-11T19:51:52.315Z,21.80
2023-09-11T19:56:55.608Z,24.30
2023-09-11T20:01:58.865Z,20.00
2023-09-11T20:07:01.928Z,22.00
2023-09-11T20:12:08.015Z,22.60
2023-09-11T20:17:11.225Z,22.40
2023-09-11T20:22:14.432Z,20.60
2023-09-11T20:27:17.713Z,25.40
2023-09-11T20:32:20.959Z,23.40
2023-09-11T20:37:24.270Z,24.50
2023-09-11T20:42:28.004Z,25.60
2023-09-11T20:47:31.219Z,25.40
2023-09-11T20:52:34.414Z,23.70
2023-09-11T20:57:37.528Z,28.50
2023-09-11T21:02:40.657Z,27.40
2023-09-11T21:07:45.495Z,27.10
2023-09-11T21:12:56.936Z,26.30
2023-09-11T21:18:00.077Z,28.30
2023-09-11T21:23:04.241Z,26.70
2023-09-11T21:28:07.857Z,26.20
2023-09-11T21:33:10.896Z,28.60
2023-09-11T21:38:14.074Z,27.00
2023-09-11T21:43:17.199Z,30.50
2023-09-11T21:48:20.309Z,33.70
2023-09-11T21:53:23.511Z,27.80
2023-09-11T21:58:27.023Z,29.10
2023-09-11T22:03:30.158Z,25.40
2023-09-11T22:08:33.851Z,25.60
2023-09-11T22:13:36.859Z,20.40
2023-09-11T22:18:40.115Z,24.00
2023-09-11T22:23:43.649Z,26.50
2023-09-11T22:28:47.016Z,26.40
2023-09-11T22:33:50.132Z,28.50
2023-09-11T22:38:53.335Z,25.90
2023-09-11T22:43:56.334Z,28.10
2023-09-11T22:48:59.352Z,30.00
2023-09-11T22:54:02.505Z,29.60
2023-09-11T22:59:05.680Z,32.30
2023-09-11T23:04:10.746Z,32.30
2023-09-11T23:09:14.296Z,31.40
2023-09-11T23:14:17.343Z,32.10
2023-09-11T23:19:20.453Z,27.30
2023-09-11T23:24:23.491Z,26.80
2023-09-11T23:29:26.722Z,30.40
2023-09-11T23:34:29.880Z,25.80
2023-09-11T23:39:32.925Z,25.70
2023-09-11T23:44:36.104Z,29.90
2023-09-11T23:49:39.228Z,25.70
2023-09-11T23:54:42.423Z,29.70
2023-09-11T23:59:45.430Z,27.00
